createdAt,value
2024-04-18T00:01:01.824Z,93719.73
2024-04-18T00:02:27.977Z,93720.11
2024-04-18T00:03:34.102Z,93725.26
2024-04-18T00:04:40.830Z,93723.16
2024-04-18T00:05:46.878Z,93724.08
2024-04-18T00:06:53.141Z,93727.96
2024-04-18T00:07:59.815Z,93729.02
2024-04-18T00:09:06.034Z,93731.34
2024-04-18T00:10:12.682Z,93731.95
2024-04-18T00:11:18.970Z,93727.94
2024-04-18T00:12:25.004Z,93728.77
2024-04-18T00:13:31.250Z,93728.53
2024-04-18T00:14:37.375Z,93726.73
2024-04-18T00:15:43.451Z,93725.84
2024-04-18T00:16:49.811Z,93728.27
2024-04-18T00:17:56.334Z,93722.59
2024-04-18T00:19:02.884Z,93719.83
2024-04-18T00:20:10.886Z,93719.37
2024-04-18T00:21:16.986Z,93717.95
2024-04-18T00:22:23.220Z,93719.95
2024-04-18T00:23:29.480Z,93719.54
2024-04-18T00:24:35.568Z,93723.03
2024-04-18T00:25:41.931Z,93720.08
2024-04-18T00:26:48.117Z,93717.91
2024-04-18T00:27:54.342Z,93717.40
2024-04-18T00:29:00.499Z,93718.96
2024-04-18T00:30:09.432Z,93714.63
2024-04-18T00:31:16.016Z,93719.88
2024-04-18T00:32:22.271Z,93714.58
2024-04-18T00:33:28.549Z,93712.29
2024-04-18T00:34:35.055Z,93711.15
2024-04-18T00:35:41.648Z,93710.02
2024-04-18T00:36:48.313Z,93707.46
2024-04-18T00:37:54.564Z,93708.04
2024-04-18T00:39:01.227Z,93708.88
2024-04-18T00:40:09.472Z,93709.56
2024-04-18T00:41:15.732Z,93718.31
2024-04-18T00:42:21.897Z,93715.55
2024-04-18T00:43:28.306Z,93713.16
2024-04-18T00:44:34.414Z,93708.55
2024-04-18T00:45:40.848Z,93708.52
2024-04-18T00:46:47.032Z,93703.66
2024-04-18T00:47:53.946Z,93702.17
2024-04-18T00:49:01.353Z,93698.82
2024-04-18T00:50:10.879Z,93696.30
2024-04-18T00:51:17.655Z,93691.95
2024-04-18T00:52:23.923Z,93694.17
2024-04-18T00:53:31.203Z,93693.92
2024-04-18T00:54:37.586Z,93692.10
2024-04-18T00:55:43.687Z,93686.23
2024-04-18T00:56:49.691Z,93683.02
2024-04-18T00:57:56.417Z,93681.65
2024-04-18T00:59:03.807Z,93675.40
2024-04-18T01:00:12.915Z,93673.84
2024-04-18T01:01:18.201Z,93677.27
2024-04-18T01:02:28.319Z,93677.51
2024-04-18T01:03:35.617Z,93672.11
2024-04-18T01:04:42.862Z,93671.58
2024-04-18T01:05:49.667Z,93666.60
2024-04-18T01:06:56.456Z,93668.54
2024-04-18T01:08:02.840Z,93668.66
2024-04-18T01:09:10.021Z,93667.35
2024-04-18T01:10:16.127Z,93670.93
2024-04-18T01:11:22.460Z,93672.52
2024-04-18T01:12:28.904Z,93673.23
2024-04-18T01:13:39.280Z,93673.46
2024-04-18T01:14:45.669Z,93661.67
2024-04-18T01:15:52.171Z,93654.92
2024-04-18T01:16:58.212Z,93654.33
2024-04-18T01:18:04.855Z,93653.15
2024-04-18T01:19:18.366Z,93655.05
2024-04-18T01:20:26.293Z,93657.19
2024-04-18T01:21:32.870Z,93659.16
2024-04-18T01:22:38.767Z,93665.52
2024-04-18T01:23:44.711Z,93670.07
2024-04-18T01:24:50.956Z,93670.70
2024-04-18T01:25:58.087Z,93668.77
2024-04-18T01:27:04.335Z,93668.54
2024-04-18T01:28:10.726Z,93673.67
2024-04-18T01:29:17.036Z,93669.79
2024-04-18T01:30:23.504Z,93669.78
2024-04-18T01:31:29.644Z,93668.21
2024-04-18T01:32:36.941Z,93668.44
2024-04-18T01:33:43.968Z,93663.77
2024-04-18T01:34:50.749Z,93662.31
2024-04-18T01:35:56.904Z,93665.76
2024-04-18T01:37:03.236Z,93669.34
2024-04-18T01:38:10.280Z,93670.13
2024-04-18T01:39:17.033Z,93677.38
2024-04-18T01:40:23.522Z,93676.23
2024-04-18T01:41:29.856Z,93679.39
2024-04-18T01:42:36.402Z,93683.17
2024-04-18T01:43:42.809Z,93680.52
2024-04-18T01:44:50.124Z,93677.47
2024-04-18T01:45:56.367Z,93679.02
2024-04-18T01:47:02.489Z,93674.38
2024-04-18T01:48:10.493Z,93675.34
2024-04-18T01:49:16.519Z,93672.10
2024-04-18T01:50:23.170Z,93667.64
2024-04-18T01:51:29.322Z,93668.01
2024-04-18T01:52:36.182Z,93663.08
2024-04-18T01:53:42.259Z,93661.20
2024-04-18T01:54:48.741Z,93662.54
2024-04-18T01:55:54.808Z,93660.31
2024-04-18T01:57:01.072Z,93661.81
2024-04-18T01:58:08.164Z,93667.06
2024-04-18T01:59:14.547Z,93673.02
2024-04-18T02:00:20.807Z,93674.85
2024-04-18T02:01:28.314Z,93675.35
2024-04-18T02:02:34.603Z,93678.13
2024-04-18T02:03:40.936Z,93676.91
2024-04-18T02:04:47.650Z,93673.86
2024-04-18T02:05:53.597Z,93678.56
2024-04-18T02:07:00.020Z,93675.89
2024-04-18T02:08:07.660Z,93677.18
2024-04-18T02:09:13.929Z,93680.52
2024-04-18T02:10:20.732Z,93680.61
2024-04-18T02:11:27.151Z,93682.19
2024-04-18T02:12:33.279Z,93684.17
2024-04-18T02:13:39.502Z,93689.67
2024-04-18T02:14:46.504Z,93692.41
2024-04-18T02:15:53.635Z,93689.23
2024-04-18T02:16:59.646Z,93687.73
2024-04-18T02:18:06.269Z,93689.20
2024-04-18T02:19:12.474Z,93685.32
2024-04-18T02:20:19.265Z,93687.16
2024-04-18T02:21:25.596Z,93688.41
2024-04-18T02:22:31.825Z,93689.80
2024-04-18T02:23:37.842Z,93695.04
2024-04-18T02:25:08.050Z,93697.18
2024-04-18T02:26:14.319Z,93699.57
2024-04-18T02:27:20.600Z,93703.83
2024-04-18T02:28:26.612Z,93704.15
2024-04-18T02:29:32.750Z,93703.90
2024-04-18T02:30:38.941Z,93700.53
2024-04-18T02:31:45.097Z,93696.72
2024-04-18T02:32:51.355Z,93689.52
2024-04-18T02:33:57.367Z,93685.58
2024-04-18T02:35:05.578Z,93682.64
2024-04-18T02:36:12.740Z,93686.11
2024-04-18T02:37:18.757Z,93686.73
2024-04-18T02:38:24.771Z,93688.86
2024-04-18T02:39:31.091Z,93686.10
2024-04-18T02:40:37.562Z,93686.66
2024-04-18T02:41:44.086Z,93688.76
2024-04-18T02:42:50.573Z,93687.65
2024-04-18T02:43:57.477Z,93688.33
2024-04-18T02:45:04.288Z,93687.77
2024-04-18T02:46:10.825Z,93688.55
2024-04-18T02:47:17.326Z,93683.81
2024-04-18T02:48:24.139Z,93682.86
2024-04-18T02:49:30.660Z,93679.73
2024-04-18T02:50:36.800Z,93680.34
2024-04-18T02:51:43.374Z,93678.34
2024-04-18T02:52:49.602Z,93679.58
2024-04-18T02:53:55.733Z,93678.52
2024-04-18T02:55:02.190Z,93678.95
2024-04-18T02:56:09.545Z,93682.43
2024-04-18T02:57:15.877Z,93680.21
2024-04-18T02:58:22.194Z,93681.55
2024-04-18T02:59:28.323Z,93684.95
2024-04-18T03:00:35.886Z,93682.50
2024-04-18T03:01:42.327Z,93682.92
2024-04-18T03:02:48.892Z,93682.08
2024-04-18T03:03:55.397Z,93682.27
2024-04-18T03:05:01.816Z,93683.84
2024-04-18T03:06:08.959Z,93679.13
2024-04-18T03:07:15.287Z,93678.94
2024-04-18T03:08:21.452Z,93678.80
2024-04-18T03:09:27.675Z,93676.33
2024-04-18T03:10:34.443Z,93679.26
2024-04-18T03:11:40.689Z,93673.84
2024-04-18T03:12:46.809Z,93671.37
2024-04-18T03:13:53.043Z,93664.70
2024-04-18T03:14:59.816Z,93662.63
2024-04-18T03:16:06.981Z,93657.70
2024-04-18T03:17:13.160Z,93651.52
2024-04-18T03:18:19.136Z,93643.95
2024-04-18T03:19:25.188Z,93640.17
2024-04-18T03:20:31.424Z,93642.88
2024-04-18T03:21:37.634Z,93643.33
2024-04-18T03:22:45.129Z,93649.96
2024-04-18T03:23:51.852Z,93651.46
2024-04-18T03:24:58.237Z,93652.09
2024-04-18T03:26:04.685Z,93653.72
2024-04-18T03:27:10.864Z,93651.75
2024-04-18T03:28:17.401Z,93645.14
2024-04-18T03:29:23.838Z,93647.07
2024-04-18T03:30:30.254Z,93652.95
2024-04-18T03:31:36.470Z,93655.52
2024-04-18T03:32:43.033Z,93658.05
2024-04-18T03:33:50.892Z,93663.15
2024-04-18T03:34:58.198Z,93662.68
2024-04-18T03:36:06.760Z,93665.29
2024-04-18T03:37:13.214Z,93664.86
2024-04-18T03:38:20.373Z,93664.75
2024-04-18T03:39:28.480Z,93670.29
2024-04-18T03:40:35.331Z,93675.89
2024-04-18T03:41:41.435Z,93678.64
2024-04-18T03:42:47.775Z,93677.76
2024-04-18T03:43:54.620Z,93677.27
2024-04-18T03:45:00.800Z,93678.78
2024-04-18T03:46:07.232Z,93675.85
2024-04-18T03:47:13.502Z,93671.23
2024-04-18T03:48:19.860Z,93666.34
2024-04-18T03:49:26.619Z,93668.29
2024-04-18T03:50:32.682Z,93669.72
2024-04-18T03:51:38.799Z,93673.07
2024-04-18T03:52:45.327Z,93670.32
2024-04-18T03:53:51.580Z,93670.73
2024-04-18T03:55:02.167Z,93667.70
2024-04-18T03:56:09.473Z,93666.69
2024-04-18T03:57:15.599Z,93665.39
2024-04-18T03:58:22.220Z,93667.99
2024-04-18T03:59:28.020Z,93662.55
2024-04-18T04:00:34.504Z,93663.63
2024-04-18T04:01:40.738Z,93664.45
2024-04-18T04:02:47.034Z,93663.61
2024-04-18T04:03:53.840Z,93661.70
2024-04-18T04:05:00.368Z,93660.45
2024-04-18T04:06:08.057Z,93660.99
2024-04-18T04:07:14.458Z,93662.79
2024-04-18T04:08:21.214Z,93659.38
2024-04-18T04:09:27.476Z,93667.05
2024-04-18T04:10:33.511Z,93666.80
2024-04-18T04:11:39.857Z,93662.95
2024-04-18T04:12:46.184Z,93661.48
2024-04-18T04:13:52.992Z,93664.50
2024-04-18T04:14:59.047Z,93662.80
2024-04-18T04:16:06.698Z,93666.81
2024-04-18T04:17:13.444Z,93667.84
2024-04-18T04:18:19.616Z,93664.81
2024-04-18T04:19:26.343Z,93664.69
2024-04-18T04:20:32.687Z,93666.86
2024-04-18T04:21:39.576Z,93665.26
2024-04-18T04:22:45.633Z,93666.77
2024-04-18T04:23:51.891Z,93670.80
2024-04-18T04:24:58.239Z,93672.46
2024-04-18T04:26:04.968Z,93676.82
2024-04-18T04:27:11.139Z,93676.41
2024-04-18T04:28:17.289Z,93675.29
2024-04-18T04:29:23.801Z,93681.98
2024-04-18T04:30:30.073Z,93675.80
2024-04-18T04:31:36.946Z,93675.16
2024-04-18T04:32:43.021Z,93674.13
2024-04-18T04:33:49.487Z,93677.48
2024-04-18T04:34:55.743Z,93676.77
2024-04-18T04:36:02.380Z,93676.41
2024-04-18T04:37:08.603Z,93677.52
2024-04-18T04:38:14.781Z,93678.67
2024-04-18T04:39:21.630Z,93675.55
2024-04-18T04:40:27.710Z,93674.34
2024-04-18T04:41:33.955Z,93675.36
2024-04-18T04:42:39.983Z,93672.42
2024-04-18T04:43:46.491Z,93668.20
2024-04-18T04:44:53.786Z,93670.71
2024-04-18T04:45:59.956Z,93664.03
2024-04-18T04:47:09.007Z,93667.81
2024-04-18T04:48:16.020Z,93667.87
2024-04-18T04:49:22.594Z,93665.45
2024-04-18T04:50:29.769Z,93664.64
2024-04-18T04:51:36.297Z,93672.30
2024-04-18T04:52:42.571Z,93671.02
2024-04-18T04:53:50.600Z,93663.11
2024-04-18T04:54:58.744Z,93670.00
2024-04-18T04:56:04.912Z,93667.52
2024-04-18T04:57:11.506Z,93664.79
2024-04-18T04:58:18.096Z,93662.52
2024-04-18T04:59:24.448Z,93659.59
2024-04-18T05:00:30.908Z,93660.14
2024-04-18T05:01:37.592Z,93664.21
2024-04-18T05:02:45.229Z,93658.29
2024-04-18T05:03:53.450Z,93655.81
2024-04-18T05:05:00.471Z,93653.49
2024-04-18T05:06:07.339Z,93655.48
2024-04-18T05:07:13.664Z,93654.22
2024-04-18T05:08:19.891Z,93653.77
2024-04-18T05:09:26.361Z,93656.31
2024-04-18T05:10:32.769Z,93657.77
2024-04-18T05:11:39.177Z,93664.17
2024-04-18T05:12:45.610Z,93669.29
2024-04-18T05:13:53.083Z,93670.48
2024-04-18T05:14:59.716Z,93671.64
2024-04-18T05:16:07.938Z,93667.86
2024-04-18T05:17:14.383Z,93671.14
2024-04-18T05:18:20.741Z,93672.77
2024-04-18T05:19:27.206Z,93675.48
2024-04-18T05:20:33.604Z,93678.98
2024-04-18T05:21:40.525Z,93676.65
2024-04-18T05:22:46.825Z,93671.23
2024-04-18T05:23:53.385Z,93672.43
2024-04-18T05:24:59.925Z,93668.85
2024-04-18T05:26:06.991Z,93669.00
2024-04-18T05:27:13.152Z,93669.23
2024-04-18T05:28:30.853Z,93667.55
2024-04-18T05:29:55.951Z,93669.95
2024-04-18T05:31:03.131Z,93670.59
2024-04-18T05:32:10.053Z,93669.92
2024-04-18T05:33:17.858Z,93668.05
2024-04-18T05:34:24.638Z,93668.27
2024-04-18T05:35:30.776Z,93666.71
2024-04-18T05:36:36.990Z,93666.41
2024-04-18T05:37:43.631Z,93666.50
2024-04-18T05:38:49.931Z,93663.52
2024-04-18T05:39:56.361Z,93664.05
2024-04-18T05:41:03.129Z,93664.45
2024-04-18T05:42:09.877Z,93669.46
2024-04-18T05:43:16.257Z,93666.23
2024-04-18T05:44:25.118Z,93670.58
2024-04-18T05:45:32.194Z,93668.05
2024-04-18T05:46:38.901Z,93670.02
2024-04-18T05:47:45.271Z,93675.80
2024-04-18T05:48:52.635Z,93671.14
2024-04-18T05:49:59.063Z,93673.26
2024-04-18T05:51:06.540Z,93672.14
2024-04-18T05:52:12.596Z,93672.81
2024-04-18T05:53:19.924Z,93674.21
2024-04-18T05:54:25.895Z,93671.69
2024-04-18T05:55:33.328Z,93673.73
2024-04-18T05:56:39.599Z,93674.72
2024-04-18T05:57:46.129Z,93675.55
2024-04-18T05:58:52.283Z,93670.13
2024-04-18T05:59:59.671Z,93671.23
2024-04-18T06:01:07.785Z,93670.39
2024-04-18T06:02:14.324Z,93670.11
2024-04-18T06:03:20.653Z,93677.26
2024-04-18T06:04:27.418Z,93676.48
2024-04-18T06:05:34.801Z,93676.52
2024-04-18T06:06:41.625Z,93678.20
2024-04-18T06:07:48.271Z,93678.73
2024-04-18T06:08:55.469Z,93677.20
2024-04-18T06:10:02.173Z,93679.73
2024-04-18T06:11:08.916Z,93680.09
2024-04-18T06:12:15.670Z,93680.11
2024-04-18T06:13:26.198Z,93681.52
2024-04-18T06:14:32.815Z,93681.36
2024-04-18T06:15:44.503Z,93682.46
2024-04-18T06:16:53.297Z,93683.69
2024-04-18T06:18:00.091Z,93686.83
2024-04-18T06:19:06.468Z,93689.05
2024-04-18T06:20:13.624Z,93690.15
2024-04-18T06:21:21.053Z,93691.95
2024-04-18T06:22:27.396Z,93690.35
2024-04-18T06:23:33.749Z,93691.88
2024-04-18T06:24:42.277Z,93694.52
2024-04-18T06:25:48.699Z,93693.44
2024-04-18T06:26:55.327Z,93696.16
2024-04-18T06:28:01.619Z,93700.34
2024-04-18T06:29:09.302Z,93700.65
2024-04-18T06:30:17.106Z,93697.20
2024-04-18T06:31:23.768Z,93695.05
2024-04-18T06:32:30.229Z,93694.83
2024-04-18T06:33:38.406Z,93693.01
2024-04-18T06:34:45.524Z,93696.01
2024-04-18T06:35:51.750Z,93692.58
2024-04-18T06:36:59.130Z,93691.06
2024-04-18T06:38:05.764Z,93691.56
2024-04-18T06:39:12.106Z,93690.86
2024-04-18T06:40:24.262Z,93696.55
2024-04-18T06:41:30.957Z,93694.84
2024-04-18T06:42:38.121Z,93699.85
2024-04-18T06:43:44.306Z,93704.23
2024-04-18T06:44:50.448Z,93696.10
2024-04-18T06:45:57.020Z,93699.11
2024-04-18T06:47:04.146Z,93697.70
2024-04-18T06:48:11.061Z,93696.98
2024-04-18T06:49:17.748Z,93695.20
2024-04-18T06:50:26.369Z,93696.53
2024-04-18T06:51:33.446Z,93701.39
2024-04-18T06:52:39.721Z,93705.14
2024-04-18T06:53:46.242Z,93707.70
2024-04-18T06:54:52.508Z,93710.73
2024-04-18T06:56:00.742Z,93708.73
2024-04-18T06:57:07.875Z,93712.92
2024-04-18T06:58:14.507Z,93715.91
2024-04-18T06:59:21.030Z,93715.15
2024-04-18T07:00:28.240Z,93719.75
2024-04-18T07:01:34.443Z,93715.60
2024-04-18T07:02:41.302Z,93719.59
2024-04-18T07:03:47.643Z,93719.09
2024-04-18T07:04:54.737Z,93720.87
2024-04-18T07:06:01.149Z,93719.58
2024-04-18T07:07:09.420Z,93720.02
2024-04-18T07:08:16.385Z,93717.20
2024-04-18T07:09:23.073Z,93716.33
2024-04-18T07:10:29.291Z,93716.59
2024-04-18T07:11:35.729Z,93718.14
2024-04-18T07:12:41.991Z,93718.21
2024-04-18T07:13:49.864Z,93717.06
2024-04-18T07:14:56.347Z,93715.85
2024-04-18T07:16:04.789Z,93716.91
2024-04-18T07:17:10.888Z,93715.46
2024-04-18T07:18:17.690Z,93720.84
2024-04-18T07:19:24.485Z,93723.15
2024-04-18T07:20:32.260Z,93724.05
2024-04-18T07:21:38.570Z,93724.91
2024-04-18T07:22:44.745Z,93722.39
2024-04-18T07:23:51.422Z,93723.44
2024-04-18T07:24:57.787Z,93725.61
2024-04-18T07:26:05.109Z,93728.39
2024-04-18T07:27:11.433Z,93728.41
2024-04-18T07:28:20.177Z,93729.64
2024-04-18T07:29:26.527Z,93730.51
2024-04-18T07:30:32.754Z,93732.32
2024-04-18T07:31:39.789Z,93732.23
2024-04-18T07:32:45.924Z,93734.34
2024-04-18T07:33:52.692Z,93733.52
2024-04-18T07:34:59.723Z,93736.91
2024-04-18T07:36:07.462Z,93736.88
2024-04-18T07:37:14.010Z,93736.05
2024-04-18T07:38:22.016Z,93736.52
2024-04-18T07:39:28.104Z,93735.46
2024-04-18T07:40:34.391Z,93738.10
2024-04-18T07:41:40.658Z,93739.30
2024-04-18T07:42:49.805Z,93734.25
2024-04-18T07:43:56.177Z,93737.14
2024-04-18T07:45:02.823Z,93738.10
2024-04-18T07:46:10.283Z,93739.81
2024-04-18T07:47:16.377Z,93736.08
2024-04-18T07:48:22.812Z,93738.61
2024-04-18T07:49:29.968Z,93739.79
2024-04-18T07:50:35.921Z,93738.27
2024-04-18T07:51:43.575Z,93739.66
2024-04-18T07:52:56.859Z,93739.63
2024-04-18T07:54:10.375Z,93740.61
2024-04-18T07:55:17.326Z,93740.60
2024-04-18T07:56:24.556Z,93743.00
2024-04-18T07:57:31.613Z,93743.60
2024-04-18T07:58:38.828Z,93743.20
2024-04-18T07:59:46.468Z,93746.58
2024-04-18T08:00:55.272Z,93746.05
2024-04-18T08:02:02.556Z,93743.59
2024-04-18T08:03:12.465Z,93744.94
2024-04-18T08:04:44.487Z,93746.08
2024-04-18T08:05:51.199Z,93746.12
2024-04-18T08:07:00.680Z,93748.80
2024-04-18T08:08:12.317Z,93745.56
2024-04-18T08:09:23.830Z,93744.40
2024-04-18T08:10:36.789Z,93747.08
2024-04-18T08:12:22.357Z,93746.13
2024-04-18T08:13:22.928Z,93745.05
2024-04-18T08:14:35.559Z,93745.73
2024-04-18T08:16:53.761Z,93745.79
2024-04-18T08:18:00.817Z,93747.80
2024-04-18T08:19:07.665Z,93747.44
2024-04-18T08:20:13.976Z,93746.31
2024-04-18T08:21:20.484Z,93747.41
2024-04-18T08:22:26.901Z,93748.63
2024-04-18T08:23:33.704Z,93751.92
2024-04-18T08:24:41.188Z,93750.25
2024-04-18T08:25:47.305Z,93752.38
2024-04-18T08:26:53.998Z,93753.10
2024-04-18T08:28:00.214Z,93753.14
2024-04-18T08:29:08.739Z,93752.70
2024-04-18T08:30:16.506Z,93755.80
2024-04-18T08:31:22.935Z,93759.68
2024-04-18T08:32:29.777Z,93757.77
2024-04-18T08:33:35.969Z,93761.32
2024-04-18T08:34:44.367Z,93762.27
2024-04-18T08:35:49.385Z,93765.52
2024-04-18T08:36:55.384Z,93762.23
2024-04-18T08:38:02.236Z,93767.49
2024-04-18T08:39:09.777Z,93766.30
2024-04-18T08:40:16.415Z,93767.64
2024-04-18T08:41:22.604Z,93765.73
2024-04-18T08:42:30.973Z,93763.05
2024-04-18T08:43:37.576Z,93764.23
2024-04-18T08:44:43.827Z,93760.44
2024-04-18T08:45:52.468Z,93760.23
2024-04-18T08:47:00.414Z,93758.14
2024-04-18T08:48:10.959Z,93759.27
2024-04-18T08:49:19.361Z,93756.52
2024-04-18T08:50:27.656Z,93758.52
2024-04-18T08:51:37.838Z,93754.38
2024-04-18T08:52:45.243Z,93755.06
2024-04-18T08:53:52.227Z,93753.37
2024-04-18T08:54:58.991Z,93754.01
2024-04-18T08:56:10.227Z,93757.23
2024-04-18T08:57:20.346Z,93759.14
2024-04-18T08:58:26.845Z,93761.06
2024-04-18T08:59:34.076Z,93764.98
2024-04-18T09:00:43.453Z,93763.66
2024-04-18T09:01:48.548Z,93767.77
2024-04-18T09:02:56.391Z,93772.42
2024-04-18T09:04:02.593Z,93768.65
2024-04-18T09:05:11.148Z,93770.54
2024-04-18T09:06:19.131Z,93774.54
2024-04-18T09:07:25.191Z,93776.09
2024-04-18T09:08:31.750Z,93773.48
2024-04-18T09:09:37.914Z,93776.61
2024-04-18T09:10:44.617Z,93773.98
2024-04-18T09:11:50.811Z,93777.67
2024-04-18T09:13:00.081Z,93772.08
2024-04-18T09:14:08.521Z,93777.08
2024-04-18T09:15:16.499Z,93777.29
2024-04-18T09:16:24.991Z,93771.41
2024-04-18T09:17:31.062Z,93775.98
2024-04-18T09:18:39.257Z,93773.81
2024-04-18T09:19:46.782Z,93773.52
2024-04-18T09:20:52.959Z,93773.80
2024-04-18T09:22:01.921Z,93773.48
2024-04-18T09:23:08.408Z,93772.98
2024-04-18T09:24:14.417Z,93772.72
2024-04-18T09:25:22.442Z,93774.50
2024-04-18T09:26:30.746Z,93774.39
2024-04-18T09:27:38.365Z,93770.80
2024-04-18T09:28:45.717Z,93771.35
2024-04-18T09:29:52.287Z,93780.88
2024-04-18T09:31:00.048Z,93777.30
2024-04-18T09:32:09.196Z,93781.84
2024-04-18T09:33:16.670Z,93776.52
2024-04-18T09:34:24.725Z,93777.04
2024-04-18T09:35:35.732Z,93777.45
2024-04-18T09:36:43.340Z,93777.48
2024-04-18T09:37:57.398Z,93776.92
2024-04-18T09:39:19.946Z,93778.55
2024-04-18T09:40:30.906Z,93776.52
2024-04-18T09:41:41.880Z,93778.02
2024-04-18T09:42:54.527Z,93781.45
2024-04-18T09:44:08.167Z,93780.73
2024-04-18T09:45:17.504Z,93781.01
2024-04-18T09:46:24.984Z,93778.92
2024-04-18T09:47:33.891Z,93780.64
2024-04-18T09:48:38.748Z,93780.67
2024-04-18T09:49:49.164Z,93781.27
2024-04-18T09:50:57.231Z,93781.50
2024-04-18T09:52:05.169Z,93777.48
2024-04-18T09:53:12.722Z,93779.89
2024-04-18T09:54:20.360Z,93774.12
2024-04-18T09:55:29.289Z,93776.75
2024-04-18T09:56:38.158Z,93773.98
2024-04-18T09:57:48.171Z,93777.17
2024-04-18T09:58:56.574Z,93784.77
2024-04-18T10:00:06.843Z,93777.34
2024-04-18T10:01:15.261Z,93779.99
2024-04-18T10:02:25.107Z,93780.27
2024-04-18T10:03:32.042Z,93774.05
2024-04-18T10:04:39.778Z,93778.45
2024-04-18T10:05:51.945Z,93779.81
2024-04-18T10:06:59.648Z,93782.13
2024-04-18T10:08:08.678Z,93784.46
2024-04-18T10:09:19.028Z,93782.88
2024-04-18T10:10:27.467Z,93786.68
2024-04-18T10:11:35.313Z,93783.75
2024-04-18T10:12:43.259Z,93783.95
2024-04-18T10:13:51.146Z,93783.21
2024-04-18T10:14:58.190Z,93777.12
2024-04-18T10:16:10.746Z,93776.16
2024-04-18T10:17:30.299Z,93775.35
2024-04-18T10:18:41.875Z,93779.98
2024-04-18T10:19:51.490Z,93781.52
2024-04-18T10:21:00.312Z,93779.73
2024-04-18T10:22:23.490Z,93780.52
2024-04-18T10:23:35.930Z,93773.63
2024-04-18T10:24:42.812Z,93770.71
2024-04-18T10:25:49.264Z,93770.84
2024-04-18T10:27:07.850Z,93767.39
2024-04-18T10:28:24.723Z,93772.92
2024-04-18T10:29:30.844Z,93768.09
2024-04-18T10:30:42.685Z,93770.38
2024-04-18T10:31:50.100Z,93772.20
2024-04-18T10:32:56.613Z,93767.31
2024-04-18T10:34:03.622Z,93765.66
2024-04-18T10:35:12.088Z,93765.20
2024-04-18T10:36:19.455Z,93764.04
2024-04-18T10:37:25.914Z,93761.67
2024-04-18T10:38:34.423Z,93769.05
2024-04-18T10:39:44.370Z,93772.71
2024-04-18T10:41:06.602Z,93771.10
2024-04-18T10:42:13.957Z,93775.69
2024-04-18T10:43:24.849Z,93776.30
2024-04-18T10:44:31.280Z,93780.05
2024-04-18T10:45:40.843Z,93783.67
2024-04-18T10:46:47.842Z,93779.84
2024-04-18T10:47:57.203Z,93779.58
2024-04-18T10:49:04.792Z,93784.04
2024-04-18T10:50:11.922Z,93781.48
2024-04-18T10:51:19.379Z,93778.54
2024-04-18T10:52:25.891Z,93786.08
2024-04-18T10:53:33.451Z,93783.29
2024-04-18T10:54:39.993Z,93781.20
2024-04-18T10:55:46.970Z,93778.38
2024-04-18T10:56:53.376Z,93787.61
2024-04-18T10:58:00.855Z,93787.28
2024-04-18T10:59:12.066Z,93787.27
2024-04-18T11:00:22.484Z,93788.60
2024-04-18T11:01:33.238Z,93787.95
2024-04-18T11:02:39.766Z,93793.23
2024-04-18T11:03:55.272Z,93789.89
2024-04-18T11:05:03.574Z,93784.35
2024-04-18T11:06:12.055Z,93782.95
2024-04-18T11:07:19.127Z,93792.44
2024-04-18T11:08:35.176Z,93797.20
2024-04-18T11:09:45.475Z,93802.10
2024-04-18T11:10:52.242Z,93809.16
2024-04-18T11:11:59.663Z,93809.90
2024-04-18T11:13:08.402Z,93814.17
2024-04-18T11:14:16.971Z,93816.04
2024-04-18T11:15:25.972Z,93815.72
2024-04-18T11:16:32.890Z,93815.64
2024-04-18T11:17:42.375Z,93813.89
2024-04-18T11:18:49.676Z,93811.67
2024-04-18T11:19:58.807Z,93815.70
2024-04-18T11:21:06.775Z,93811.43
2024-04-18T11:22:13.411Z,93810.43
2024-04-18T11:23:29.208Z,93812.81
2024-04-18T11:24:41.744Z,93815.34
2024-04-18T11:25:48.944Z,93817.52
2024-04-18T11:26:55.399Z,93819.91
2024-04-18T11:28:04.946Z,93824.02
2024-04-18T11:29:11.930Z,93827.07
2024-04-18T11:30:20.144Z,93830.27
2024-04-18T11:31:26.938Z,93829.15
2024-04-18T11:32:33.839Z,93829.66
2024-04-18T11:33:41.640Z,93830.23
2024-04-18T11:34:52.361Z,93833.08
2024-04-18T11:36:01.956Z,93827.86
2024-04-18T11:37:10.186Z,93831.86
2024-04-18T11:38:20.136Z,93828.17
2024-04-18T11:39:30.394Z,93830.66
2024-04-18T11:40:37.515Z,93831.86
2024-04-18T11:41:44.475Z,93832.68
2024-04-18T11:42:50.676Z,93831.81
2024-04-18T11:43:56.927Z,93836.22
2024-04-18T11:45:06.280Z,93834.97
2024-04-18T11:46:13.555Z,93833.86
2024-04-18T11:47:20.148Z,93831.10
2024-04-18T11:48:26.761Z,93829.58
2024-04-18T11:49:32.807Z,93837.22
2024-04-18T11:50:40.541Z,93842.65
2024-04-18T11:51:46.787Z,93845.25
2024-04-18T11:52:53.050Z,93847.34
2024-04-18T11:53:59.505Z,93852.73
2024-04-18T11:55:07.583Z,93844.66
2024-04-18T11:56:13.636Z,93843.20
2024-04-18T11:57:20.211Z,93843.02
2024-04-18T11:58:26.947Z,93842.04
2024-04-18T11:59:34.842Z,93842.41
2024-04-18T12:00:42.010Z,93837.27
2024-04-18T12:01:48.496Z,93836.95
2024-04-18T12:02:55.162Z,93839.17
2024-04-18T12:04:02.484Z,93839.02
2024-04-18T12:05:09.762Z,93843.98
2024-04-18T12:06:16.207Z,93844.84
2024-04-18T12:07:22.422Z,93842.24
2024-04-18T12:08:30.630Z,93839.40
2024-04-18T12:09:43.897Z,93846.48
2024-04-18T12:10:50.283Z,93846.18
2024-04-18T12:11:56.747Z,93837.72
2024-04-18T12:13:04.395Z,93844.97
2024-04-18T12:14:10.428Z,93850.40
2024-04-18T12:15:17.652Z,93849.23
2024-04-18T12:16:25.858Z,93848.01
2024-04-18T12:17:32.374Z,93851.85
2024-04-18T12:18:39.144Z,93855.65
2024-04-18T12:19:46.390Z,93851.64
2024-04-18T12:20:54.047Z,93856.98
2024-04-18T12:22:00.618Z,93855.45
2024-04-18T12:23:06.864Z,93856.67
2024-04-18T12:24:14.402Z,93849.85
2024-04-18T12:25:22.485Z,93849.23
2024-04-18T12:26:28.390Z,93851.36
2024-04-18T12:27:35.029Z,93845.13
2024-04-18T12:28:41.410Z,93848.66
2024-04-18T12:29:48.980Z,93847.65
2024-04-18T12:30:56.531Z,93847.54
2024-04-18T12:32:02.937Z,93849.50
2024-04-18T12:33:09.497Z,93855.52
2024-04-18T12:34:15.540Z,93856.96
2024-04-18T12:35:21.732Z,93853.39
2024-04-18T12:36:29.991Z,93852.25
2024-04-18T12:37:36.819Z,93853.45
2024-04-18T12:38:45.747Z,93850.16
2024-04-18T12:39:52.844Z,93847.56
2024-04-18T12:41:03.011Z,93846.41
2024-04-18T12:42:11.799Z,93845.50
2024-04-18T12:43:20.433Z,93846.06
2024-04-18T12:44:27.858Z,93839.80
2024-04-18T12:45:35.812Z,93843.36
2024-04-18T12:46:42.671Z,93842.33
2024-04-18T12:47:50.694Z,93840.30
2024-04-18T12:48:57.879Z,93842.80
2024-04-18T12:50:06.779Z,93846.46
2024-04-18T12:51:14.005Z,93843.97
2024-04-18T12:52:20.016Z,93847.83
2024-04-18T12:53:26.778Z,93848.17
2024-04-18T12:54:33.088Z,93849.02
2024-04-18T12:55:39.671Z,93845.83
2024-04-18T12:56:49.487Z,93843.95
2024-04-18T12:57:58.299Z,93840.23
2024-04-18T12:59:04.939Z,93840.80
2024-04-18T13:00:13.796Z,93842.44
2024-04-18T13:01:21.195Z,93836.61
2024-04-18T13:02:27.580Z,93834.17
2024-04-18T13:03:34.653Z,93831.71
2024-04-18T13:04:42.057Z,93830.48
2024-04-18T13:05:48.686Z,93831.27
2024-04-18T13:06:55.761Z,93829.73
2024-04-18T13:08:03.867Z,93825.42
2024-04-18T13:09:10.184Z,93827.76
2024-04-18T13:10:18.797Z,93822.98
2024-04-18T13:11:25.468Z,93826.02
2024-04-18T13:12:32.070Z,93824.20
2024-04-18T13:13:38.484Z,93827.02
2024-04-18T13:14:45.089Z,93826.73